createdAt,value
2018-12-03T00:01:55.965Z,12.86
2018-12-03T00:04:24.385Z,12.85
2018-12-03T00:06:51.813Z,12.87
2018-12-03T00:09:22.794Z,12.86
2018-12-03T00:11:50.455Z,12.85
2018-12-03T00:14:17.811Z,12.84
2018-12-03T00:16:45.169Z,12.85
2018-12-03T00:19:12.512Z,12.84
2018-12-03T00:21:40.273Z,12.84
2018-12-03T00:24:07.595Z,12.83
2018-12-03T00:26:34.942Z,12.84
2018-12-03T00:29:02.278Z,12.84
2018-12-03T00:31:29.943Z,12.83
2018-12-03T00:33:57.259Z,12.81
2018-12-03T00:36:24.593Z,12.82
2018-12-03T00:38:53.082Z,12.81
2018-12-03T00:41:20.416Z,12.82
2018-12-03T00:43:48.631Z,12.82
2018-12-03T00:46:16.268Z,12.84
2018-12-03T00:48:43.662Z,12.85
2018-12-03T00:51:10.968Z,12.84
2018-12-03T00:53:38.774Z,12.84
2018-12-03T00:56:06.133Z,12.84
2018-12-03T00:58:33.468Z,12.82
2018-12-03T01:01:00.783Z,12.82
2018-12-03T01:03:28.482Z,12.82
2018-12-03T01:05:55.820Z,12.82
2018-12-03T01:08:23.157Z,12.81
2018-12-03T01:10:50.863Z,12.79
2018-12-03T01:13:18.269Z,12.78
2018-12-03T01:15:45.633Z,12.77
2018-12-03T01:18:12.934Z,12.75
2018-12-03T01:20:40.588Z,12.74
2018-12-03T01:23:11.554Z,12.71
2018-12-03T01:25:38.934Z,12.69
2018-12-03T01:28:06.301Z,12.67
2018-12-03T01:30:34.097Z,12.65
2018-12-03T01:33:01.446Z,12.63
2018-12-03T01:35:28.759Z,12.61
2018-12-03T01:37:56.132Z,12.62
2018-12-03T01:40:23.515Z,12.59
2018-12-03T01:42:50.849Z,12.58
2018-12-03T01:45:18.271Z,12.58
2018-12-03T01:47:45.931Z,12.58
2018-12-03T01:50:13.235Z,12.57
2018-12-03T01:52:40.580Z,12.55
2018-12-03T01:55:08.057Z,12.55
2018-12-03T01:57:35.708Z,12.55
2018-12-03T02:00:03.057Z,12.54
2018-12-03T02:02:30.378Z,12.54
2018-12-03T02:04:57.814Z,12.53
2018-12-03T02:07:25.513Z,12.55
2018-12-03T02:09:53.659Z,12.54
2018-12-03T02:12:21.043Z,12.56
2018-12-03T02:14:48.398Z,12.56
2018-12-03T02:17:16.172Z,12.59
2018-12-03T02:19:43.568Z,12.59
2018-12-03T02:22:10.915Z,12.60
2018-12-03T02:24:38.253Z,12.61
2018-12-03T02:27:06.142Z,12.62
2018-12-03T02:29:34.347Z,12.62
2018-12-03T02:32:01.764Z,12.63
2018-12-03T02:34:29.075Z,12.62
2018-12-03T02:36:56.994Z,12.63
2018-12-03T02:39:24.359Z,12.63
2018-12-03T02:41:51.724Z,12.63
2018-12-03T02:44:19.060Z,12.60
2018-12-03T02:46:46.703Z,12.61
2018-12-03T02:49:14.034Z,12.62
2018-12-03T02:51:41.331Z,12.63
2018-12-03T02:54:08.668Z,12.63
2018-12-03T02:56:36.483Z,12.64
2018-12-03T02:59:03.882Z,12.64
2018-12-03T03:01:31.183Z,12.64
2018-12-03T03:03:58.504Z,12.63
2018-12-03T03:06:26.224Z,12.61
2018-12-03T03:08:53.544Z,12.62
2018-12-03T03:11:20.909Z,12.62
2018-12-03T03:13:48.527Z,12.64
2018-12-03T03:16:15.853Z,12.64
2018-12-03T03:18:43.201Z,12.65
2018-12-03T03:21:10.562Z,12.66
2018-12-03T03:23:38.382Z,12.67
2018-12-03T03:26:05.699Z,12.68
2018-12-03T03:28:33.015Z,12.70
2018-12-03T03:31:00.477Z,12.70
2018-12-03T03:33:28.168Z,12.67
2018-12-03T03:35:55.444Z,12.67
2018-12-03T03:38:22.738Z,12.65
2018-12-03T03:40:50.418Z,12.65
2018-12-03T03:43:17.682Z,12.64
2018-12-03T03:45:45.020Z,12.64
2018-12-03T03:48:12.287Z,12.63
2018-12-03T03:50:39.976Z,12.63
2018-12-03T03:53:07.246Z,12.63
2018-12-03T03:55:34.787Z,12.61
2018-12-03T03:58:02.358Z,12.61
2018-12-03T04:00:29.951Z,12.59
2018-12-03T04:02:57.222Z,12.60
2018-12-03T04:05:24.500Z,12.61
2018-12-03T04:07:51.836Z,12.61
2018-12-03T04:10:19.600Z,12.62
2018-12-03T04:12:47.049Z,12.62
2018-12-03T04:15:14.323Z,12.64
2018-12-03T04:17:41.646Z,12.66
2018-12-03T04:20:09.323Z,12.67
2018-12-03T04:22:36.620Z,12.68
2018-12-03T04:25:03.954Z,12.69
2018-12-03T04:27:31.603Z,12.70
2018-12-03T04:29:58.932Z,12.69
2018-12-03T04:32:26.353Z,12.73
2018-12-03T04:34:53.616Z,12.74
2018-12-03T04:37:21.267Z,12.76
2018-12-03T04:39:48.598Z,12.77
2018-12-03T04:42:15.849Z,12.75
2018-12-03T04:44:43.815Z,12.73
2018-12-03T04:47:11.505Z,12.73
2018-12-03T04:49:38.866Z,12.71
2018-12-03T04:52:06.192Z,12.69
2018-12-03T04:54:33.810Z,12.67
2018-12-03T04:57:01.090Z,12.64
2018-12-03T04:59:28.355Z,12.62
2018-12-03T05:01:55.642Z,12.61
2018-12-03T05:04:23.269Z,12.59
2018-12-03T05:06:51.653Z,12.59
2018-12-03T05:09:17.975Z,12.58
2018-12-03T05:11:45.728Z,12.57
2018-12-03T05:14:13.058Z,12.56
2018-12-03T05:16:40.429Z,12.55
2018-12-03T05:19:07.876Z,12.53
2018-12-03T05:21:35.729Z,12.51
2018-12-03T05:24:04.451Z,12.49
2018-12-03T05:26:30.550Z,12.47
2018-12-03T05:28:57.877Z,12.44
2018-12-03T05:31:25.679Z,12.41
2018-12-03T05:33:53.291Z,12.37
2018-12-03T05:36:20.630Z,12.36
2018-12-03T05:38:48.303Z,12.34
2018-12-03T05:41:15.655Z,12.34
2018-12-03T05:43:42.995Z,12.35
2018-12-03T05:46:10.802Z,12.34
2018-12-03T05:48:39.111Z,12.33
2018-12-03T05:51:06.452Z,12.33
2018-12-03T05:53:34.161Z,12.33
2018-12-03T05:56:02.489Z,12.30
2018-12-03T05:58:29.808Z,12.28
2018-12-03T06:00:57.536Z,12.27
2018-12-03T06:03:24.855Z,12.25
2018-12-03T06:05:52.176Z,12.22
2018-12-03T06:08:19.883Z,12.19
2018-12-03T06:10:47.239Z,12.16
2018-12-03T06:13:14.708Z,12.15
2018-12-03T06:15:42.620Z,12.13
2018-12-03T06:18:09.965Z,12.13
2018-12-03T06:20:37.366Z,12.12
2018-12-03T06:23:06.026Z,12.11
2018-12-03T06:25:33.355Z,12.11
2018-12-03T06:28:01.388Z,12.11
2018-12-03T06:30:29.417Z,12.09
2018-12-03T06:32:56.739Z,12.08
2018-12-03T06:35:24.064Z,12.05
2018-12-03T06:37:51.775Z,12.01
2018-12-03T06:40:19.085Z,11.97
2018-12-03T06:42:46.481Z,11.95
2018-12-03T06:45:14.135Z,11.93
2018-12-03T06:47:41.444Z,11.89
2018-12-03T06:50:08.789Z,11.88
2018-12-03T06:52:36.540Z,11.89
2018-12-03T06:55:03.873Z,11.89
2018-12-03T06:57:31.300Z,11.90
2018-12-03T06:59:59.061Z,11.89
2018-12-03T07:02:27.636Z,11.88
2018-12-03T07:04:53.832Z,11.89
2018-12-03T07:07:21.458Z,11.88
2018-12-03T07:09:48.860Z,11.89
2018-12-03T07:12:16.503Z,11.88
2018-12-03T07:14:44.127Z,11.88
2018-12-03T07:17:11.448Z,11.90
2018-12-03T07:19:39.387Z,11.88
2018-12-03T07:22:08.263Z,11.89
2018-12-03T07:24:35.676Z,11.90
2018-12-03T07:27:03.019Z,11.92
2018-12-03T07:29:30.740Z,11.94
2018-12-03T07:31:58.068Z,11.95
2018-12-03T07:34:25.424Z,11.95
2018-12-03T07:36:53.101Z,11.97
2018-12-03T07:39:20.450Z,12.00
2018-12-03T07:41:47.805Z,12.02
2018-12-03T07:44:15.499Z,12.03
2018-12-03T07:46:42.818Z,12.03
2018-12-03T07:49:10.153Z,12.02
2018-12-03T07:51:37.815Z,11.99
2018-12-03T07:54:05.135Z,11.98
2018-12-03T07:56:32.457Z,11.95
2018-12-03T07:59:00.216Z,11.92
2018-12-03T08:01:27.540Z,11.88
2018-12-03T08:03:54.876Z,11.87
2018-12-03T08:06:22.581Z,11.87
2018-12-03T08:08:50.676Z,11.88
2018-12-03T08:11:17.992Z,11.90
2018-12-03T08:13:45.805Z,11.91
2018-12-03T08:16:13.136Z,11.93
2018-12-03T08:18:40.483Z,11.93
2018-12-03T08:21:09.110Z,11.95
2018-12-03T08:23:36.471Z,11.97
2018-12-03T08:26:03.823Z,11.98
2018-12-03T08:28:31.517Z,11.98
2018-12-03T08:30:58.941Z,12.02
2018-12-03T08:33:26.270Z,12.06
2018-12-03T08:35:55.067Z,12.07
2018-12-03T08:38:22.359Z,12.07
2018-12-03T08:40:49.661Z,12.04
2018-12-03T08:43:17.908Z,12.03
2018-12-03T08:45:45.364Z,12.03
2018-12-03T08:48:12.724Z,12.04
2018-12-03T08:50:40.504Z,12.05
2018-12-03T08:53:09.223Z,12.06
2018-12-03T08:55:36.928Z,12.08
2018-12-03T08:58:07.960Z,12.13
2018-12-03T09:00:37.239Z,12.18
2018-12-03T09:03:05.839Z,12.24
2018-12-03T09:05:33.837Z,12.33
2018-12-03T09:08:02.059Z,12.41
2018-12-03T09:10:29.401Z,12.43
2018-12-03T09:12:58.088Z,12.41
2018-12-03T09:15:25.464Z,12.38
2018-12-03T09:17:53.451Z,12.36
2018-12-03T09:20:20.854Z,12.32
2018-12-03T09:22:48.240Z,12.31
2018-12-03T09:25:16.096Z,12.31
2018-12-03T09:27:44.075Z,12.32
2018-12-03T09:30:11.438Z,12.33
2018-12-03T09:32:46.190Z,12.37
2018-12-03T09:35:14.225Z,12.39
2018-12-03T09:37:43.831Z,12.41
2018-12-03T09:42:45.404Z,12.46
2018-12-03T09:45:13.645Z,12.50
2018-12-03T09:47:42.254Z,12.52
2018-12-03T09:50:11.216Z,12.51
2018-12-03T09:52:39.043Z,12.48
2018-12-03T09:55:06.723Z,12.39
2018-12-03T09:57:35.795Z,12.30
2018-12-03T10:00:04.332Z,12.22
2018-12-03T10:02:32.973Z,12.15
2018-12-03T10:05:00.396Z,12.16
2018-12-03T10:07:27.732Z,12.22
2018-12-03T10:09:56.016Z,12.32
2018-12-03T10:12:24.656Z,12.37
2018-12-03T10:14:55.594Z,12.45
2018-12-03T10:17:31.611Z,12.56
2018-12-03T10:19:59.283Z,12.82
2018-12-03T10:22:26.624Z,13.00
2018-12-03T10:24:55.336Z,13.02
2018-12-03T10:27:22.654Z,12.98
2018-12-03T10:29:50.316Z,12.95
2018-12-03T10:32:19.855Z,12.91
2018-12-03T10:34:51.713Z,12.88
2018-12-03T10:37:20.867Z,12.85
2018-12-03T10:42:22.270Z,12.85
2018-12-03T10:44:49.872Z,12.87
2018-12-03T10:47:18.471Z,12.94
2018-12-03T10:49:46.748Z,12.95
2018-12-03T10:52:14.059Z,12.94
2018-12-03T10:54:42.294Z,12.95
2018-12-03T10:57:09.664Z,12.99
2018-12-03T10:59:39.919Z,13.06
2018-12-03T11:02:12.751Z,13.16
2018-12-03T11:04:44.787Z,13.18
2018-12-03T11:07:12.156Z,13.17
2018-12-03T11:09:40.411Z,13.18
2018-12-03T11:12:07.755Z,13.16
2018-12-03T11:14:35.064Z,13.15
2018-12-03T11:17:02.819Z,13.08
2018-12-03T11:19:30.180Z,12.97
2018-12-03T11:21:57.483Z,12.84
2018-12-03T11:24:25.355Z,12.69
2018-12-03T11:26:52.707Z,12.60
2018-12-03T11:29:20.052Z,12.55
2018-12-03T11:31:47.765Z,12.58
2018-12-03T11:34:16.224Z,12.63
2018-12-03T11:36:44.453Z,12.71
2018-12-03T11:39:15.989Z,12.79
2018-12-03T11:41:43.302Z,12.83
2018-12-03T11:44:10.751Z,12.86
2018-12-03T11:46:38.549Z,12.90
2018-12-03T11:49:05.928Z,12.97
2018-12-03T11:51:33.289Z,13.03
2018-12-03T11:54:03.143Z,13.11
2018-12-03T11:56:30.489Z,13.28
2018-12-03T11:58:57.856Z,13.45
2018-12-03T12:01:25.583Z,13.53
2018-12-03T12:03:52.923Z,13.61
2018-12-03T12:06:20.981Z,13.62
2018-12-03T12:08:48.683Z,13.53
2018-12-03T12:11:16.170Z,13.39
2018-12-03T12:13:43.552Z,13.27
2018-12-03T12:16:11.344Z,13.18
2018-12-03T12:18:38.708Z,13.15
2018-12-03T12:21:06.034Z,13.14
2018-12-03T12:23:33.700Z,13.09
2018-12-03T12:26:01.122Z,13.01
2018-12-03T12:28:28.475Z,12.94
2018-12-03T12:30:56.231Z,12.90
2018-12-03T12:33:23.604Z,12.87
2018-12-03T12:35:50.965Z,12.85
2018-12-03T12:38:18.608Z,12.89
2018-12-03T12:40:45.954Z,12.97
2018-12-03T12:43:13.306Z,12.99
2018-12-03T12:45:41.036Z,12.99
2018-12-03T12:48:08.418Z,12.96
2018-12-03T12:50:35.823Z,12.93
2018-12-03T12:53:03.569Z,12.92
2018-12-03T12:55:30.935Z,12.96
2018-12-03T12:57:59.655Z,13.01
2018-12-03T13:00:27.376Z,13.07
2018-12-03T13:02:54.717Z,13.22
2018-12-03T13:05:28.544Z,13.31
2018-12-03T13:07:51.184Z,13.31
2018-12-03T13:10:19.064Z,13.25
2018-12-03T13:12:46.446Z,13.18
2018-12-03T13:15:15.331Z,13.10
2018-12-03T13:17:43.233Z,13.03
2018-12-03T13:20:10.568Z,12.99
2018-12-03T13:22:38.741Z,12.97
2018-12-03T13:25:06.806Z,12.97
2018-12-03T13:27:34.399Z,13.01
2018-12-03T13:30:02.200Z,13.01
2018-12-03T13:32:29.552Z,12.97
2018-12-03T13:34:58.370Z,12.92
2018-12-03T13:37:27.263Z,12.90
2018-12-03T13:39:56.260Z,12.87
2018-12-03T13:42:24.574Z,12.77
2018-12-03T13:44:54.617Z,12.64
2018-12-03T13:47:21.923Z,12.54
2018-12-03T13:49:49.564Z,12.46
2018-12-03T13:52:17.288Z,12.39
2018-12-03T13:54:45.593Z,12.31
2018-12-03T13:57:13.264Z,12.27
2018-12-03T13:59:41.043Z,12.23
2018-12-03T14:02:08.351Z,12.19
2018-12-03T14:04:35.695Z,12.16
2018-12-03T14:07:04.059Z,12.14
2018-12-03T14:09:31.394Z,12.13
2018-12-03T14:11:58.748Z,12.12
2018-12-03T14:14:26.508Z,12.12
2018-12-03T14:16:54.782Z,12.12
2018-12-03T14:19:22.092Z,12.12
2018-12-03T14:21:49.783Z,12.13
2018-12-03T14:24:17.189Z,12.12
2018-12-03T14:26:45.176Z,12.13
2018-12-03T14:29:12.886Z,12.11
2018-12-03T14:31:40.218Z,12.11
2018-12-03T14:34:07.596Z,12.08
2018-12-03T14:36:35.247Z,12.07
2018-12-03T14:39:02.598Z,12.07
2018-12-03T14:42:07.047Z,12.08
2018-12-03T14:44:34.674Z,12.16
2018-12-03T14:47:02.323Z,12.23
2018-12-03T14:49:30.375Z,12.28
2018-12-03T14:51:58.002Z,12.31
2018-12-03T14:54:27.118Z,12.31
2018-12-03T14:56:55.246Z,12.31
2018-12-03T14:59:22.879Z,12.32
2018-12-03T15:01:50.505Z,12.32
2018-12-03T15:04:20.524Z,12.30
2018-12-03T15:06:49.274Z,12.28
2018-12-03T15:09:17.526Z,12.27
2018-12-03T15:11:45.858Z,12.24
2018-12-03T15:14:21.643Z,12.21
2018-12-03T15:16:49.622Z,12.16
2018-12-03T15:19:17.245Z,12.12
2018-12-03T15:21:45.442Z,12.04
2018-12-03T15:24:14.255Z,12.01
2018-12-03T15:26:42.520Z,11.97
2018-12-03T15:29:11.910Z,11.93
2018-12-03T15:31:40.961Z,11.90
2018-12-03T15:34:08.573Z,11.89
2018-12-03T15:36:39.432Z,11.85
2018-12-03T15:39:08.507Z,11.83
2018-12-03T15:41:36.806Z,11.81
2018-12-03T15:44:04.454Z,11.80
2018-12-03T15:46:32.410Z,11.76
2018-12-03T15:49:01.406Z,11.74
2018-12-03T15:51:28.993Z,11.70
2018-12-03T15:53:57.004Z,11.68
2018-12-03T15:56:24.621Z,11.67
2018-12-03T15:58:52.220Z,11.67
2018-12-03T16:01:21.153Z,11.65
2018-12-03T16:03:48.762Z,11.63
2018-12-03T16:06:18.815Z,11.63
2018-12-03T16:08:46.894Z,11.63
2018-12-03T16:11:14.477Z,11.63
2018-12-03T16:13:43.504Z,11.63
2018-12-03T16:16:11.532Z,11.61
2018-12-03T16:18:40.605Z,11.62
2018-12-03T16:21:08.227Z,11.66
2018-12-03T16:23:36.286Z,11.69
2018-12-03T16:26:04.502Z,11.73
2018-12-03T16:28:32.760Z,11.73
2018-12-03T16:31:00.717Z,11.76
2018-12-03T16:33:29.645Z,11.79
2018-12-03T16:35:57.244Z,11.82
2018-12-03T16:38:26.038Z,11.84
2018-12-03T16:40:55.503Z,11.86
2018-12-03T16:45:56.045Z,11.87
2018-12-03T16:48:23.661Z,11.84
2018-12-03T16:50:51.326Z,11.85
2018-12-03T16:53:19.236Z,11.85
2018-12-03T16:55:46.820Z,11.87
2018-12-03T16:58:14.507Z,11.89
2018-12-03T17:00:42.533Z,11.90
2018-12-03T17:03:10.138Z,11.91
2018-12-03T17:05:38.720Z,11.93
2018-12-03T17:08:06.809Z,11.91
2018-12-03T17:10:34.393Z,11.91
2018-12-03T17:13:02.960Z,11.88
2018-12-03T17:15:32.996Z,11.85
2018-12-03T17:18:00.688Z,11.82
2018-12-03T17:20:28.953Z,11.79
2018-12-03T17:22:57.853Z,11.77
2018-12-03T17:25:25.486Z,11.75
2018-12-03T17:27:53.108Z,11.74
2018-12-03T17:30:21.052Z,11.71
2018-12-03T17:32:48.691Z,11.68
2018-12-03T17:35:16.321Z,11.65
2018-12-03T17:37:45.042Z,11.61
2018-12-03T17:40:13.664Z,11.59
2018-12-03T17:42:41.594Z,11.61
2018-12-03T17:45:10.417Z,11.62
2018-12-03T17:47:39.701Z,11.63
2018-12-03T17:50:07.920Z,11.66
2018-12-03T17:52:36.193Z,11.66
2018-12-03T17:55:03.791Z,11.68
2018-12-03T17:57:32.241Z,11.71
2018-12-03T18:00:00.322Z,11.73
2018-12-03T18:02:28.601Z,11.74
2018-12-03T18:04:57.441Z,11.76
2018-12-03T18:07:28.518Z,11.78
2018-12-03T18:09:56.108Z,11.80
2018-12-03T18:12:23.694Z,11.82
2018-12-03T18:14:51.646Z,11.84
2018-12-03T18:17:19.268Z,11.85
2018-12-03T18:19:46.930Z,11.86
2018-12-03T18:22:15.747Z,11.88
2018-12-03T18:24:43.650Z,11.87
2018-12-03T18:27:11.244Z,11.87
2018-12-03T18:29:40.213Z,11.85
2018-12-03T18:32:14.818Z,11.85
2018-12-03T18:34:42.467Z,11.85
2018-12-03T18:37:10.399Z,11.88
2018-12-03T18:39:38.314Z,11.89
2018-12-03T18:42:06.974Z,11.92
2018-12-03T18:44:35.175Z,11.93
2018-12-03T18:47:04.247Z,11.96
2018-12-03T18:49:31.848Z,11.98
2018-12-03T18:51:59.842Z,11.99
2018-12-03T18:54:27.423Z,12.01
2018-12-03T18:56:55.582Z,12.04
2018-12-03T18:59:24.254Z,12.06
2018-12-03T19:01:51.877Z,12.07
2018-12-03T19:04:20.493Z,12.09
2018-12-03T19:06:49.473Z,12.14
2018-12-03T19:09:17.977Z,12.15
2018-12-03T19:11:46.603Z,12.15
2018-12-03T19:14:14.578Z,12.17
2018-12-03T19:16:42.190Z,12.18
2018-12-03T19:19:10.493Z,12.20
2018-12-03T19:21:39.811Z,12.21
2018-12-03T19:24:08.213Z,12.17
2018-12-03T19:26:36.829Z,12.12
2018-12-03T19:29:05.885Z,12.05
2018-12-03T19:31:33.839Z,12.01
2018-12-03T19:34:01.453Z,11.98
2018-12-03T19:36:29.486Z,11.96
2018-12-03T19:38:57.431Z,11.93
2018-12-03T19:41:25.746Z,11.91
2018-12-03T19:43:54.318Z,11.89
2018-12-03T19:46:23.436Z,11.87
2018-12-03T19:48:51.750Z,11.82
2018-12-03T19:51:19.736Z,11.79
2018-12-03T19:53:47.387Z,11.77
2018-12-03T19:56:14.992Z,11.74
2018-12-03T19:58:43.759Z,11.71
2018-12-03T20:01:12.290Z,11.69
2018-12-03T20:03:44.528Z,11.68
2018-12-03T20:06:13.207Z,11.66
2018-12-03T20:08:42.139Z,11.65
2018-12-03T20:11:09.801Z,11.64
2018-12-03T20:13:37.726Z,11.62
2018-12-03T20:16:05.350Z,11.60
2018-12-03T20:18:35.782Z,11.59
2018-12-03T20:21:03.761Z,11.59
2018-12-03T20:23:31.387Z,11.59
2018-12-03T20:25:59.838Z,11.58
2018-12-03T20:28:27.814Z,11.58
2018-12-03T20:30:55.442Z,11.58
2018-12-03T20:33:23.751Z,11.57
2018-12-03T20:35:52.346Z,11.56
2018-12-03T20:38:19.963Z,11.56
2018-12-03T20:40:48.626Z,11.55
2018-12-03T20:43:17.495Z,11.55
2018-12-03T20:45:45.830Z,11.52
2018-12-03T20:48:13.425Z,11.52
2018-12-03T20:50:43.641Z,11.52
2018-12-03T20:53:11.481Z,11.53
2018-12-03T20:55:39.826Z,11.53
2018-12-03T20:58:09.618Z,11.52
2018-12-03T21:00:37.933Z,11.51
2018-12-03T21:03:06.379Z,11.50
2018-12-03T21:05:36.207Z,11.47
2018-12-03T21:08:05.288Z,11.43
2018-12-03T21:10:33.467Z,11.38
2018-12-03T21:13:02.700Z,11.32
2018-12-03T21:15:30.347Z,11.30
2018-12-03T21:17:57.945Z,11.31
2018-12-03T21:20:26.010Z,11.31
2018-12-03T21:22:53.666Z,11.28
2018-12-03T21:25:23.011Z,11.26
2018-12-03T21:27:51.009Z,11.26
2018-12-03T21:30:18.654Z,11.26
2018-12-03T21:32:46.252Z,11.29
2018-12-03T21:35:14.233Z,11.32
2018-12-03T21:37:43.788Z,11.33
2018-12-03T21:40:12.312Z,11.34
2018-12-03T21:42:42.815Z,11.35
2018-12-03T21:45:10.527Z,11.36
2018-12-03T21:47:40.049Z,11.37
2018-12-03T21:50:07.976Z,11.38
2018-12-03T21:52:36.049Z,11.37
2018-12-03T21:55:05.025Z,11.35
2018-12-03T21:57:34.456Z,11.34
2018-12-03T22:00:02.164Z,11.33
2018-12-03T22:02:29.758Z,11.29
2018-12-03T22:04:58.622Z,11.26
2018-12-03T22:07:26.297Z,11.25
2018-12-03T22:09:53.868Z,11.23
2018-12-03T22:12:21.855Z,11.19
2018-12-03T22:14:49.474Z,11.15
2018-12-03T22:17:17.097Z,11.08
2018-12-03T22:19:45.983Z,11.01
2018-12-03T22:22:14.467Z,10.91
2018-12-03T22:24:45.280Z,10.83
2018-12-03T22:27:13.956Z,10.78
2018-12-03T22:29:41.868Z,10.75
2018-12-03T22:32:09.873Z,10.73
2018-12-03T22:34:37.847Z,10.73
2018-12-03T22:37:05.431Z,10.75
2018-12-03T22:39:33.138Z,10.76
2018-12-03T22:42:00.733Z,10.77
2018-12-03T22:44:28.346Z,10.79
2018-12-03T22:46:56.356Z,10.79
2018-12-03T22:49:23.922Z,10.78
2018-12-03T22:51:51.526Z,10.77
2018-12-03T22:54:19.425Z,10.75
2018-12-03T22:56:47.024Z,10.74
2018-12-03T22:59:15.391Z,10.74
2018-12-03T23:01:43.035Z,10.76
2018-12-03T23:04:11.106Z,10.77
2018-12-03T23:06:39.716Z,10.79
2018-12-03T23:09:07.323Z,10.81
2018-12-03T23:11:38.056Z,10.83
2018-12-03T23:14:05.726Z,10.85
2018-12-03T23:16:33.343Z,10.88
2018-12-03T23:19:01.409Z,10.89
2018-12-03T23:21:29.013Z,10.90
2018-12-03T23:23:56.694Z,10.92
2018-12-03T23:26:25.546Z,10.92
2018-12-03T23:28:53.991Z,10.94
2018-12-03T23:31:21.644Z,10.93
2018-12-03T23:33:49.745Z,10.92
2018-12-03T23:36:17.361Z,10.91
2018-12-03T23:38:46.412Z,10.90
2018-12-03T23:41:14.311Z,10.88
2018-12-03T23:43:41.930Z,10.88
2018-12-03T23:46:09.568Z,10.88
2018-12-03T23:48:37.207Z,10.89
2018-12-03T23:51:05.221Z,10.88
2018-12-03T23:53:32.841Z,10.86
2018-12-03T23:56:00.470Z,10.85
2018-12-03T23:58:28.093Z,10.82
